Reilly, Pennsylvania
Current Conditions -  °F | °C
As of 1:58 PM on Friday 21 Nov 2014 (Local Time) from KMUI Reporting Station
Broken Clouds Broken Clouds  
Wind Chill: 26°   Ceiling: 6000
Heat Index: 33°   Visibility: 10mi
Dew Point:   Wind: 9mph
Humidity: 34%   Direction: 290°WNW
Pressure: 30.39"   Gusts: NA
Location:  40.6756°N, 76.3278°W
Report Text: KMUI 211858Z AUTO 29008KT 10SM BKN060 01/M14 A3039 RMK AO2 SLP300 T00071137 $
Loading
Personal Weather Stations






























Interactive Weather Map New forecast layout! Learn more

10-Day Weather Forecast

Advertisements
Track Severe Weather on mobile